Time;durP1;ratioP1;P1;durP2;ratioP2;P2;SDS_P1;SDS_P2;PMS_P1;PMS_P2;Temp;Humidity;BMP_temperature;BMP_pressure;BME280_temperature;BME280_humidity;BME280_pressure;Samples;Min_cycle;Max_cycle;Signal;HPM_P1;HPM_P2
2022/05/03 00:00:02;;;;;;;10.13;7.18;;;;;;;9.76;60.34;101045.13;7399689;19;20018;-63
2022/05/03 00:02:41;;;;;;;9.93;7.05;;;;;;;9.72;60.52;101040.81;7400686;19;20024;-63
2022/05/03 00:05:18;;;;;;;8.50;6.60;;;;;;;9.69;60.65;101050.47;7398204;19;20031;-63
2022/05/03 00:07:53;;;;;;;8.23;6.90;;;;;;;9.65;61.40;101046.16;7400605;19;20021;-63
2022/05/03 00:10:26;;;;;;;10.13;7.55;;;;;;;9.61;61.41;101046.19;7398647;19;20015;-63
2022/05/03 00:13:00;;;;;;;9.07;7.07;;;;;;;9.58;62.17;101043.59;7399734;19;20431;-63
2022/05/03 00:15:29;;;;;;;11.27;7.45;;;;;;;9.57;61.82;101051.50;7400319;19;20020;-62
2022/05/03 00:17:57;;;;;;;9.65;8.10;;;;;;;9.54;61.76;101043.66;7399347;19;20498;-63
2022/05/03 00:20:28;;;;;;;8.73;7.88;;;;;;;9.55;63.41;101048.88;7398616;19;20026;-63
2022/05/03 00:22:57;;;;;;;8.40;7.57;;;;;;;9.50;62.74;101045.44;7397718;19;20372;-64
2022/05/03 00:25:26;;;;;;;9.27;7.95;;;;;;;9.48;62.60;101042.00;7399557;19;20014;-64
2022/05/03 00:27:54;;;;;;;8.82;7.82;;;;;;;9.49;62.77;101037.63;7397078;19;20055;-64
2022/05/03 00:30:23;;;;;;;11.93;8.55;;;;;;;9.54;62.58;101036.69;7396869;19;20018;-64
2022/05/03 00:32:51;;;;;;;10.07;7.78;;;;;;;9.57;62.67;101030.53;7399308;19;20019;-64
2022/05/03 00:35:21;;;;;;;8.27;7.47;;;;;;;9.61;62.48;101024.38;7396949;19;20018;-62
2022/05/03 00:37:52;;;;;;;10.30;8.65;;;;;;;9.65;62.57;101022.56;7397923;19;20477;-63
2022/05/03 00:40:23;;;;;;;11.10;8.63;;;;;;;9.69;62.52;101026.88;7397083;19;20015;-63
2022/05/03 00:43:03;;;;;;;10.38;7.95;;;;;;;9.72;62.67;101029.47;7398649;19;20482;-63
2022/05/03 00:45:39;;;;;;;8.90;7.93;;;;;;;9.76;62.61;101033.78;7396837;19;20018;-65
2022/05/03 00:48:16;;;;;;;11.07;8.43;;;;;;;9.80;62.41;101027.59;7396249;19;20384;-65
2022/05/03 00:50:52;;;;;;;9.43;7.43;;;;;;;9.83;62.47;101031.94;7397260;19;20022;-63
2022/05/03 00:53:35;;;;;;;10.95;7.55;;;;;;;9.87;62.48;101036.22;7396928;19;20032;-64
2022/05/03 00:56:31;;;;;;;8.35;7.65;;;;;;;9.91;62.49;101027.47;7398991;19;20018;-64
2022/05/03 00:59:05;;;;;;;12.82;7.18;;;;;;;9.95;62.25;101026.53;7395979;19;20510;-64
2022/05/03 01:01:42;;;;;;;8.50;7.70;;;;;;;9.99;62.24;101028.19;7396326;19;20028;-64
2022/05/03 01:04:20;;;;;;;10.90;7.63;;;;;;;10.01;62.13;101017.69;7395907;19;20363;-64
2022/05/03 01:06:56;;;;;;;9.27;7.25;;;;;;;10.03;62.15;101015.91;7395860;19;20028;-64
2022/05/03 01:09:35;;;;;;;12.05;7.72;;;;;;;10.03;62.47;101008.91;7396335;19;20007;-64
2022/05/03 01:12:19;;;;;;;9.27;8.23;;;;;;;10.04;62.32;101004.53;7398184;19;20014;-63
2022/05/03 01:15:10;;;;;;;8.50;7.70;;;;;;;10.03;62.28;101001.03;7399834;19;20035;-64
2022/05/03 01:17:46;;;;;;;9.65;7.45;;;;;;;10.04;62.19;100999.31;7397201;19;20380;-63
2022/05/03 01:20:17;;;;;;;10.45;7.95;;;;;;;10.05;62.17;101001.03;7395219;19;20430;-65
2022/05/03 01:23:06;;;;;;;12.50;8.40;;;;;;;10.07;62.21;100999.25;7397326;19;20485;-64
2022/05/03 01:25:53;;;;;;;8.73;7.80;;;;;;;10.08;62.11;100993.13;7397974;19;20018;-65
2022/05/03 01:28:32;;;;;;;8.63;7.82;;;;;;;10.07;62.18;100986.13;7397889;19;20015;-65
2022/05/03 01:31:07;;;;;;;11.32;8.43;;;;;;;10.07;62.13;100981.78;7396153;19;20023;-63
2022/05/03 01:33:45;;;;;;;8.45;7.57;;;;;;;10.06;62.13;100984.41;7395878;19;20014;-65
2022/05/03 01:36:17;;;;;;;8.95;7.18;;;;;;;10.03;62.03;100984.47;7397520;19;20050;-63
2022/05/03 01:39:03;;;;;;;8.48;7.53;;;;;;;10.03;61.89;100987.94;7395727;19;20019;-64
2022/05/03 01:41:41;;;;;;;9.15;7.70;;;;;;;10.02;62.00;100990.59;7395476;19;20025;-65
2022/05/03 01:44:16;;;;;;;8.02;7.22;;;;;;;10.00;61.88;100989.75;7396660;19;20387;-65
2022/05/03 01:46:53;;;;;;;10.45;7.55;;;;;;;9.97;62.09;100984.56;7396926;19;20029;-65
2022/05/03 01:52:50;;;;;;;9.65;8.13;;;;;;;9.89;63.26;100989.91;7397256;19;20366;-64
2022/05/03 01:55:40;;;;;;;9.60;8.65;;;;;;;9.84;62.78;100987.34;7394952;19;20018;-64
2022/05/03 01:58:21;;;;;;;9.85;8.50;;;;;;;9.81;62.96;100991.75;7394864;19;20023;-62
2022/05/03 02:01:04;;;;;;;9.68;8.70;;;;;;;9.77;63.21;100985.72;7394477;19;20010;-65
2022/05/03 02:03:47;;;;;;;10.55;9.40;;;;;;;9.75;63.29;100990.13;7396727;19;20031;-63
2022/05/03 02:06:16;;;;;;;12.18;9.57;;;;;;;9.72;63.41;100985.78;7395953;19;20485;-64
2022/05/03 02:08:59;;;;;;;10.38;9.27;;;;;;;9.69;63.27;100982.34;7396181;19;20014;-64
2022/05/03 02:11:40;;;;;;;11.73;9.35;;;;;;;9.66;63.71;100983.25;7394954;19;20482;-65
2022/05/03 02:17:07;;;;;;;12.30;9.70;;;;;;;9.61;63.61;100991.16;7392934;19;20528;-63
2022/05/03 02:19:49;;;;;;;12.02;9.55;;;;;;;9.55;64.39;100996.47;7395724;19;20015;-64
2022/05/03 02:22:47;;;;;;;11.70;9.82;;;;;;;9.48;64.22;101002.72;7396244;19;20031;-64
2022/05/03 02:25:22;;;;;;;15.10;10.68;;;;;;;9.39;64.06;101003.69;7396022;19;20014;-64
2022/05/03 02:27:55;;;;;;;12.88;10.98;;;;;;;9.34;64.20;101004.63;7396028;19;20036;-64
2022/05/03 02:30:24;;;;;;;11.40;10.05;;;;;;;9.25;64.58;101001.25;7394869;19;20023;-65
2022/05/03 02:32:59;;;;;;;10.95;9.40;;;;;;;9.19;64.58;101005.69;7395320;19;20032;-65
2022/05/03 02:35:35;;;;;;;10.45;9.13;;;;;;;9.14;64.65;101000.50;7394454;19;20506;-63
2022/05/03 02:38:06;;;;;;;12.70;11.35;;;;;;;9.12;64.78;100997.91;7393580;19;20074;-64
2022/05/03 02:40:36;;;;;;;25.10;18.70;;;;;;;9.11;64.69;100997.91;7394297;19;20025;-64
2022/05/03 02:43:05;;;;;;;27.75;20.63;;;;;;;9.10;64.70;100996.19;7394919;19;20035;-65
2022/05/03 02:45:39;;;;;;;12.98;10.85;;;;;;;9.09;64.79;101004.94;7395037;19;20018;-64
2022/05/03 02:48:14;;;;;;;11.13;10.00;;;;;;;9.06;65.05;101012.81;7395159;19;20032;-64
2022/05/03 02:50:54;;;;;;;11.48;9.40;;;;;;;9.02;65.13;101004.13;7394066;19;20021;-64
2022/05/03 02:53:29;;;;;;;12.05;9.30;;;;;;;8.99;64.92;101005.94;7392784;19;20508;-62
2022/05/03 02:56:01;;;;;;;13.65;10.68;;;;;;;8.94;65.19;101005.97;7394231;19;20529;-64
2022/05/03 02:58:45;;;;;;;12.38;10.52;;;;;;;8.89;65.66;100998.16;7392939;19;20493;-63
2022/05/03 03:04:23;;;;;;;14.18;10.60;;;;;;;8.76;65.40;100999.19;7398056;19;20015;-65
2022/05/03 03:06:57;;;;;;;10.38;9.18;;;;;;;8.70;65.64;101005.31;7399250;19;20018;-64
2022/05/03 03:09:28;;;;;;;;;;;;;;;8.66;65.71;101015.81;7403412;19;20018;-64
2022/05/03 03:12:01;;;;;;;18.30;10.68;;;;;;;8.61;65.90;101013.28;7399766;19;20255;-64
2022/05/03 03:14:37;;;;;;;11.05;9.93;;;;;;;8.54;66.23;101006.34;7399571;19;20031;-64
2022/05/03 03:17:09;;;;;;;13.68;10.77;;;;;;;8.47;66.30;101008.16;7402249;19;20021;-64
2022/05/03 03:20:08;;;;;;;11.57;10.48;;;;;;;8.42;67.47;101015.16;7401478;19;20022;-64
2022/05/03 03:22:44;;;;;;;13.45;11.48;;;;;;;8.35;67.13;101013.47;7398829;19;20038;-64
2022/05/03 03:25:13;;;;;;;12.45;10.30;;;;;;;8.30;66.99;101010.88;7401278;19;20031;-63
2022/05/03 03:27:42;;;;;;;11.90;10.70;;;;;;;8.25;66.96;101008.31;7401376;19;20023;-64
2022/05/03 03:30:13;;;;;;;12.50;10.88;;;;;;;8.22;67.35;101012.69;7398238;19;20070;-64
2022/05/03 03:32:43;;;;;;;16.08;13.63;;;;;;;8.18;67.83;101004.00;7401539;19;20014;-63
2022/05/03 03:35:14;;;;;;;23.08;17.08;;;;;;;8.13;67.71;101017.09;7398218;19;20014;-64
2022/05/03 03:37:47;;;;;;;11.88;10.63;;;;;;;8.09;67.78;101015.41;7401197;19;20031;-64
2022/05/03 03:40:16;;;;;;;14.05;11.50;;;;;;;8.07;67.74;101018.91;7398380;19;20019;-65
2022/05/03 03:42:46;;;;;;;14.38;11.75;;;;;;;8.04;68.10;101021.50;7400386;19;20019;-63
2022/05/03 03:45:17;;;;;;;13.05;11.65;;;;;;;8.02;68.31;101020.69;7400763;19;20022;-63
2022/05/03 03:47:46;;;;;;;15.00;13.35;;;;;;;7.98;68.46;101015.44;7400681;19;20099;-64
2022/05/03 03:50:23;;;;;;;15.05;13.32;;;;;;;7.95;68.70;101023.31;7399809;19;20026;-64
2022/05/03 03:52:55;;;;;;;14.75;12.10;;;;;;;7.92;68.96;101014.63;7400628;19;20035;-62
2022/05/03 03:55:24;;;;;;;13.90;11.77;;;;;;;7.94;68.72;101018.97;7397582;19;20431;-63
2022/05/03 03:57:53;;;;;;;17.45;12.77;;;;;;;7.93;69.15;101030.28;7400415;19;20031;-64
2022/05/03 04:00:21;;;;;;;15.02;12.70;;;;;;;7.92;69.36;101027.69;7398748;19;20019;-65
2022/05/03 04:02:49;;;;;;;14.02;12.63;;;;;;;7.91;69.48;101028.56;7399483;19;20490;-64
2022/05/03 04:05:20;;;;;;;14.68;12.95;;;;;;;7.86;69.91;101025.13;7399389;19;20502;-63
2022/05/03 04:07:49;;;;;;;14.05;12.35;;;;;;;7.84;70.11;101027.75;7396647;19;20380;-64
2022/05/03 04:10:20;;;;;;;15.48;12.82;;;;;;;7.83;69.94;101024.28;7396942;19;20031;-65
2022/05/03 04:12:49;;;;;;;14.05;12.57;;;;;;;7.85;69.90;101024.28;7398426;19;20019;-63
2022/05/03 04:15:17;;;;;;;16.15;13.52;;;;;;;7.87;69.97;101025.09;7399689;19;20018;-63
2022/05/03 04:17:46;;;;;;;14.65;12.30;;;;;;;7.90;70.05;101026.84;7399936;19;20042;-64
2022/05/03 04:20:16;;;;;;;16.13;13.02;;;;;;;7.93;69.96;101027.69;7396473;19;20032;-64
2022/05/03 04:22:44;;;;;;;18.17;12.80;;;;;;;7.96;69.79;101027.69;7398466;19;20066;-64
2022/05/03 04:25:13;;;;;;;18.45;13.05;;;;;;;8.01;70.13;101039.84;7396734;19;20019;-63
2022/05/03 04:27:43;;;;;;;16.67;12.98;;;;;;;8.04;70.13;101045.03;7398854;19;20018;-64
2022/05/03 04:30:13;;;;;;;15.73;11.85;;;;;;;8.08;69.96;101047.63;7398308;19;20015;-65
2022/05/03 04:32:41;;;;;;;12.40;11.13;;;;;;;8.13;69.70;101039.75;7396138;19;20055;-65
2022/05/03 04:35:10;;;;;;;13.45;12.13;;;;;;;8.17;69.51;101041.47;7398318;19;20031;-64
2022/05/03 04:37:38;;;;;;;15.05;12.40;;;;;;;8.24;69.50;101044.91;7396544;19;20018;-65
2022/05/03 04:40:08;;;;;;;14.10;11.27;;;;;;;8.29;69.52;101050.97;7398167;19;20039;-65
2022/05/03 04:42:36;;;;;;;13.40;11.57;;;;;;;8.32;69.42;101056.19;7396426;19;20027;-63
2022/05/03 04:45:08;;;;;;;13.57;11.55;;;;;;;8.35;69.31;101055.28;7398627;19;20019;-65
2022/05/03 04:47:36;;;;;;;13.35;11.40;;;;;;;8.35;69.10;101053.53;7397241;19;20088;-64
2022/05/03 04:50:04;;;;;;;17.75;11.35;;;;;;;8.38;69.42;101055.25;7397848;19;20028;-62
2022/05/03 04:52:32;;;;;;;12.18;10.65;;;;;;;8.39;69.25;101059.59;7395979;19;20019;-62
2022/05/03 04:55:00;;;;;;;14.68;11.32;;;;;;;8.41;69.19;101061.34;7395586;19;20485;-65
2022/05/03 04:57:28;;;;;;;12.13;10.77;;;;;;;8.41;69.29;101061.34;7397562;19;20032;-62
2022/05/03 04:59:57;;;;;;;13.07;11.30;;;;;;;8.42;69.09;101062.22;7395989;19;20035;-63
2022/05/03 05:02:28;;;;;;;11.95;10.10;;;;;;;8.43;68.91;101058.72;7396048;19;20019;-64
2022/05/03 05:04:56;;;;;;;13.48;10.93;;;;;;;8.41;68.99;101063.94;7394458;19;20031;-64
2022/05/03 05:07:25;;;;;;;12.02;10.52;;;;;;;8.41;68.99;101070.94;7395840;19;20022;-64
2022/05/03 05:12:33;;;;;;;12.50;10.27;;;;;;;8.44;68.88;101071.78;7395476;19;20489;-64
2022/05/03 05:15:01;;;;;;;12.90;10.77;;;;;;;8.46;68.65;101079.66;7397058;19;20022;-62
2022/05/03 05:17:35;;;;;;;12.60;10.73;;;;;;;8.48;68.72;101081.38;7394401;19;20023;-63
2022/05/03 05:20:03;;;;;;;13.25;10.95;;;;;;;8.49;68.86;101079.59;7394497;19;20023;-63
2022/05/03 05:22:32;;;;;;;13.40;10.55;;;;;;;8.50;68.60;101083.09;7396717;19;20136;-65
2022/05/03 05:25:00;;;;;;;16.83;11.48;;;;;;;8.52;68.65;101087.44;7394408;19;20525;-63
2022/05/03 05:27:28;;;;;;;13.77;11.25;;;;;;;8.56;68.39;101096.13;7395031;19;20027;-65
2022/05/03 05:29:56;;;;;;;13.75;10.27;;;;;;;8.60;68.59;101096.09;7396600;19;20018;-65
2022/05/03 05:32:24;;;;;;;13.90;9.93;;;;;;;8.64;68.38;101092.59;7394128;19;20502;-63
2022/05/03 05:34:55;;;;;;;12.68;10.32;;;;;;;8.75;68.36;101091.63;7396596;19;20023;-65
2022/05/03 05:37:23;;;;;;;11.50;9.85;;;;;;;8.85;68.04;101098.50;7394954;19;20031;-65
2022/05/03 05:39:51;;;;;;;12.60;10.75;;;;;;;8.95;67.79;101094.91;7394008;19;20015;-65
2022/05/03 05:42:20;;;;;;;15.77;10.73;;;;;;;9.06;67.56;101101.78;7396017;19;20019;-65
2022/05/03 05:44:48;;;;;;;13.07;9.95;;;;;;;9.13;67.31;101093.84;7396084;19;20027;-65
2022/05/03 05:47:17;;;;;;;11.45;10.02;;;;;;;9.21;67.26;101091.19;7396155;19;20417;-65
2022/05/03 05:49:45;;;;;;;12.25;10.68;;;;;;;9.28;66.89;101087.59;7397339;19;20091;-65
2022/05/03 05:54:56;;;;;;;14.95;9.90;;;;;;;9.46;66.37;101085.66;7396635;19;20371;-66
2022/05/03 05:57:24;;;;;;;12.15;9.60;;;;;;;9.53;66.34;101082.09;7395948;19;20022;-65
2022/05/03 05:59:53;;;;;;;11.70;9.98;;;;;;;9.62;66.08;101089.84;7394191;19;20022;-65
2022/05/03 06:02:27;;;;;;;12.98;10.20;;;;;;;9.69;65.86;101089.75;7393015;19;20104;-65
2022/05/03 06:05:02;;;;;;;17.00;10.02;;;;;;;9.76;65.77;101091.44;7394766;19;20481;-65
2022/05/03 06:07:33;;;;;;;16.92;10.32;;;;;;;9.80;65.42;101090.50;7393279;19;20021;-66
2022/05/03 06:10:01;;;;;;;15.57;11.40;;;;;;;9.83;65.36;101089.59;7392511;19;20485;-64
2022/05/03 06:12:29;;;;;;;13.15;10.18;;;;;;;9.87;65.30;101094.78;7393914;19;20026;-65
2022/05/03 06:14:57;;;;;;;11.88;9.73;;;;;;;9.90;65.06;101092.09;7394026;19;20422;-64
2022/05/03 06:17:26;;;;;;;14.52;11.93;;;;;;;9.92;64.77;101092.97;7394177;19;20099;-65
2022/05/03 06:19:54;;;;;;;12.18;10.50;;;;;;;10.00;64.87;101097.22;7393324;19;20028;-65
2022/05/03 06:22:22;;;;;;;13.15;10.07;;;;;;;10.08;64.53;101093.63;7392788;19;20031;-65
2022/05/03 06:24:53;;;;;;;12.13;9.88;;;;;;;10.18;64.30;101091.72;7393730;19;20018;-65
2022/05/03 06:27:21;;;;;;;12.85;10.48;;;;;;;10.28;63.93;101098.53;7395091;19;20023;-66
2022/05/03 06:29:49;;;;;;;14.52;9.68;;;;;;;10.38;63.68;101108.94;7395014;19;20039;-65
2022/05/03 06:32:17;;;;;;;13.63;10.52;;;;;;;10.47;63.62;101107.94;7393568;19;20035;-66
2022/05/03 06:34:45;;;;;;;15.38;11.55;;;;;;;10.55;63.16;101098.19;7392357;19;20039;-67
2022/05/03 06:37:18;;;;;;;15.60;9.50;;;;;;;10.64;62.86;101105.94;7394441;19;20027;-66
2022/05/03 06:39:46;;;;;;;12.55;9.43;;;;;;;10.72;62.76;101098.78;7392768;19;20018;-66
2022/05/03 06:42:18;;;;;;;14.50;10.57;;;;;;;10.82;62.50;101098.66;7392458;19;20015;-65
2022/05/03 06:44:47;;;;;;;11.90;9.35;;;;;;;10.92;62.32;101098.44;7393103;19;20015;-66
2022/05/03 06:47:15;;;;;;;12.63;9.95;;;;;;;11.02;62.04;101104.41;7392119;19;20516;-65
2022/05/03 06:49:43;;;;;;;14.50;9.25;;;;;;;11.11;61.77;101108.63;7392294;19;20018;-67
2022/05/03 06:52:11;;;;;;;12.32;9.02;;;;;;;11.22;61.44;101108.41;7391849;19;20353;-66
2022/05/03 06:54:40;;;;;;;12.75;9.20;;;;;;;11.29;61.24;101104.78;7392959;19;20032;-65
2022/05/03 06:57:08;;;;;;;14.93;9.18;;;;;;;11.36;61.04;101101.16;7394385;19;20022;-65
2022/05/03 06:59:39;;;;;;;13.68;8.82;;;;;;;11.47;60.66;101107.94;7394353;19;20015;-65
2022/05/03 07:02:08;;;;;;;21.02;9.52;;;;;;;11.55;60.35;101113.91;7391826;19;20419;-66
2022/05/03 07:04:36;;;;;;;12.30;9.55;;;;;;;11.66;59.98;101105.81;7394541;19;20078;-65
2022/05/03 07:07:05;;;;;;;14.70;9.02;;;;;;;11.76;59.80;101104.72;7392770;19;20035;-66
2022/05/03 07:09:33;;;;;;;12.38;8.68;;;;;;;11.88;59.35;101104.47;7392040;19;20226;-66
2022/05/03 07:12:01;;;;;;;11.43;8.82;;;;;;;12.02;58.92;101108.63;7393265;19;20032;-66
2022/05/03 07:14:29;;;;;;;12.43;8.80;;;;;;;12.13;58.59;101111.88;7392057;19;20022;-65
2022/05/03 07:17:00;;;;;;;10.10;8.27;;;;;;;12.26;58.38;101103.69;7391068;19;20035;-65
2022/05/03 07:24:49;;;;;;;11.48;7.45;;;;;;;12.62;56.70;101109.84;7393779;19;20010;-66
2022/05/03 07:27:18;;;;;;;9.77;7.15;;;;;;;12.73;56.27;101106.09;7393585;19;20014;-66
2022/05/03 07:29:47;;;;;;;11.13;7.72;;;;;;;12.82;56.00;101109.34;7391595;19;20112;-66
2022/05/03 07:32:19;;;;;;;10.07;7.15;;;;;;;12.93;55.76;101109.09;7392500;19;20015;-66
2022/05/03 07:34:47;;;;;;;10.55;7.50;;;;;;;13.04;55.28;101107.03;7391449;19;20035;-66
2022/05/03 07:37:16;;;;;;;15.70;7.68;;;;;;;13.13;54.86;101103.28;7392906;19;20025;-66
2022/05/03 07:39:44;;;;;;;9.38;7.28;;;;;;;13.23;54.56;101111.81;7392497;19;20372;-68
2022/05/03 07:42:12;;;;;;;10.40;6.47;;;;;;;13.30;54.33;101109.88;7390739;19;20023;-66
2022/05/03 07:44:40;;;;;;;11.05;7.95;;;;;;;13.36;54.15;101109.72;7390708;19;20031;-66
2022/05/03 07:47:08;;;;;;;9.20;7.00;;;;;;;13.44;53.94;101117.44;7393151;19;20019;-66
2022/05/03 07:49:39;;;;;;;11.68;6.47;;;;;;;13.51;53.58;101117.22;7400459;19;20027;-65
2022/05/03 07:52:09;;;;;;;10.60;6.90;;;;;;;13.59;53.38;101113.50;7399450;19;20384;-66
2022/05/03 07:54:37;;;;;;;10.20;6.45;;;;;;;13.67;52.85;101112.38;7400250;19;20116;-66
2022/05/03 07:57:06;;;;;;;7.25;6.15;;;;;;;13.77;52.80;101115.59;7399718;19;20343;-66
2022/05/03 07:59:34;;;;;;;10.18;6.45;;;;;;;13.88;52.45;101123.22;7399884;19;20031;-66
2022/05/03 08:02:09;;;;;;;10.45;6.88;;;;;;;14.00;51.94;101120.22;7397060;19;20490;-67
2022/05/03 08:04:46;;;;;;;11.63;6.57;;;;;;;14.12;51.16;101116.31;7400451;19;20031;-65
2022/05/03 08:07:14;;;;;;;7.68;5.35;;;;;;;14.24;51.10;101123.03;7397550;19;20019;-66
2022/05/03 08:09:42;;;;;;;7.10;5.55;;;;;;;14.38;50.59;101122.59;7397419;19;20035;-66
2022/05/03 08:12:12;;;;;;;16.15;5.65;;;;;;;14.50;50.07;101127.44;7399191;19;20018;-66
2022/05/03 08:14:40;;;;;;;7.65;6.00;;;;;;;14.60;49.20;101121.91;7399827;19;20019;-65
2022/05/03 08:17:09;;;;;;;9.32;5.85;;;;;;;14.68;49.02;101132.22;7397093;19;20027;-66
2022/05/03 08:19:38;;;;;;;9.38;5.20;;;;;;;14.72;48.83;101126.81;7396695;19;20018;-66
2022/05/03 08:22:09;;;;;;;11.40;5.28;;;;;;;14.75;46.65;101134.63;7399033;19;20015;-67
2022/05/03 08:24:37;;;;;;;10.18;7.68;;;;;;;14.74;46.68;101135.53;7397142;19;20102;-65
2022/05/03 08:27:06;;;;;;;6.47;4.45;;;;;;;14.72;46.60;101136.50;7398735;19;20022;-64
2022/05/03 08:29:34;;;;;;;5.88;4.93;;;;;;;14.70;46.91;101136.56;7396104;19;20509;-66
2022/05/03 08:32:03;;;;;;;6.90;5.03;;;;;;;14.69;46.81;101137.47;7396106;19;20018;-65
2022/05/03 08:34:31;;;;;;;5.68;4.90;;;;;;;14.69;47.07;101137.47;7398251;19;20498;-65
2022/05/03 08:42:24;;;;;;;6.57;4.97;;;;;;;14.78;46.18;101141.56;7398477;19;20011;-66
2022/05/03 08:44:52;;;;;;;7.13;5.03;;;;;;;14.79;45.02;101144.16;7397826;19;20363;-65
2022/05/03 08:47:22;;;;;;;6.82;5.40;;;;;;;14.73;44.10;101160.22;7398205;19;20035;-64
2022/05/03 08:49:57;;;;;;;9.38;6.10;;;;;;;14.71;43.69;101158.53;7397954;19;20027;-66
2022/05/03 08:52:28;;;;;;;8.48;4.78;;;;;;;14.73;45.12;101162.84;7396477;19;20026;-65
2022/05/03 08:54:59;;;;;;;10.68;6.10;;;;;;;14.78;45.33;101160.06;7396184;19;20074;-65
2022/05/03 08:57:28;;;;;;;8.27;6.43;;;;;;;14.83;45.85;101151.06;7397940;19;20022;-66
2022/05/03 08:59:57;;;;;;;7.07;5.00;;;;;;;14.92;46.15;101149.91;7395647;19;20018;-65
2022/05/03 09:02:31;;;;;;;10.45;6.28;;;;;;;15.01;46.39;101158.44;7395559;19;20011;-65
2022/05/03 09:05:07;;;;;;;7.57;5.75;;;;;;;15.12;47.14;101157.16;7395814;19;20355;-67
2022/05/03 09:07:36;;;;;;;9.48;5.38;;;;;;;15.22;46.95;101159.50;7398032;19;20031;-65
2022/05/03 09:10:18;;;;;;;7.68;5.35;;;;;;;15.32;45.51;101158.25;7395599;19;20090;-66
2022/05/03 09:12:48;;;;;;;7.57;4.68;;;;;;;15.37;46.04;101158.09;7396930;19;20023;-66
2022/05/03 09:15:16;;;;;;;8.38;4.78;;;;;;;15.34;44.61;101151.13;7394982;19;20014;-67
2022/05/03 09:17:46;;;;;;;5.30;4.43;;;;;;;15.31;44.53;101152.09;7394555;19;20467;-68
2022/05/03 09:25:43;;;;;;;28.77;18.02;;;;;;;15.15;43.70;101159.72;7397283;19;20496;-67
2022/05/03 09:28:11;;;;;;;8.68;5.38;;;;;;;15.15;43.29;101161.47;7395890;19;20031;-66
2022/05/03 09:30:50;;;;;;;5.43;4.18;;;;;;;15.13;43.51;101152.75;7395080;19;20022;-67
2022/05/03 09:33:19;;;;;;;8.13;4.38;;;;;;;15.23;43.50;101153.31;7395346;19;20046;-66
2022/05/03 09:35:48;;;;;;;5.93;5.15;;;;;;;15.31;43.95;101145.94;7394303;19;20524;-66
2022/05/03 09:38:16;;;;;;;8.43;5.03;;;;;;;15.37;43.65;101140.44;7394128;19;20109;-67
2022/05/03 09:40:49;;;;;;;6.28;5.18;;;;;;;15.45;43.42;101143.66;7394640;19;20015;-68
2022/05/03 09:43:19;;;;;;;7.65;4.63;;;;;;;15.52;43.24;101135.50;7393760;19;20377;-66
2022/05/03 09:45:47;;;;;;;7.85;5.10;;;;;;;15.57;43.51;101137.09;7394261;19;20015;-67
2022/05/03 09:48:15;;;;;;;8.02;4.82;;;;;;;15.61;43.18;101130.75;7396054;19;20073;-66
2022/05/03 09:50:46;;;;;;;10.93;4.60;;;;;;;15.62;42.43;101129.00;7394141;19;20018;-66
2022/05/03 09:53:17;;;;;;;7.65;4.40;;;;;;;15.58;42.17;101137.94;7395610;19;20018;-66
2022/05/03 09:55:50;;;;;;;6.88;4.63;;;;;;;15.52;41.79;101123.19;7394641;19;20039;-66
2022/05/03 09:58:20;;;;;;;8.82;5.03;;;;;;;15.44;42.39;101136.69;7396145;19;20026;-64
2022/05/03 10:00:50;;;;;;;7.78;4.43;;;;;;;15.42;42.98;101133.22;7394732;19;20102;-65
2022/05/03 10:03:25;;;;;;;7.00;4.55;;;;;;;15.45;43.01;101125.16;7391889;19;20027;-66
2022/05/03 10:06:00;;;;;;;5.97;3.97;;;;;;;15.50;41.70;101117.06;7394945;19;20035;-70
2022/05/03 10:08:28;;;;;;;6.30;3.90;;;;;;;15.55;42.37;101123.06;7395338;19;20018;-64
2022/05/03 10:10:59;;;;;;;7.80;4.65;;;;;;;15.62;41.36;101124.56;7391805;19;20035;-65
2022/05/03 10:13:28;;;;;;;5.97;4.60;;;;;;;15.66;41.66;101113.84;7393692;19;20019;-65
2022/05/03 10:21:29;;;;;;;4.93;3.83;;;;;;;15.91;40.91;101105.88;7393492;19;20086;-66
2022/05/03 10:24:05;;;;;;;10.55;4.30;;;;;;;16.03;40.35;101102.78;7392807;19;20039;-65
2022/05/03 10:27:05;;;;;;;6.65;4.20;;;;;;;16.12;40.28;101107.72;7393294;19;20014;-65
2022/05/03 10:29:35;;;;;;;5.43;3.92;;;;;;;16.23;40.41;101107.28;7395172;19;20042;-65
2022/05/03 10:32:05;;;;;;;13.23;5.53;;;;;;;16.28;38.67;101099.16;7393341;19;20023;-66
2022/05/03 10:34:48;;;;;;;8.57;5.85;;;;;;;16.32;38.47;101111.34;7392750;19;20030;-64
2022/05/03 10:37:17;;;;;;;9.48;4.97;;;;;;;16.39;39.54;101099.59;7393798;19;20485;-65
2022/05/03 10:39:47;;;;;;;5.18;4.20;;;;;;;16.50;39.23;101095.66;7393560;19;20496;-66
2022/05/03 10:42:18;;;;;;;5.53;3.72;;;;;;;16.61;38.80;101096.06;7393015;19;20484;-66
2022/05/03 10:44:57;;;;;;;6.78;3.30;;;;;;;16.71;38.53;101089.47;7393663;19;20022;-65
2022/05/03 10:47:47;;;;;;;8.63;4.68;;;;;;;16.74;36.84;101094.66;7395290;19;20019;-66
2022/05/03 10:50:26;;;;;;;5.63;3.70;;;;;;;16.77;36.55;101091.00;7393166;19;20042;-66
2022/05/03 10:53:19;;;;;;;5.55;4.40;;;;;;;16.77;36.37;101091.84;7393101;19;20019;-65
2022/05/03 10:56:20;;;;;;;4.97;3.75;;;;;;;16.83;36.71;101092.50;7394261;19;20014;-66
2022/05/03 10:59:10;;;;;;;5.85;3.97;;;;;;;16.84;37.48;101081.00;7393042;19;20015;-65
2022/05/03 11:02:12;;;;;;;5.18;4.10;;;;;;;16.86;36.43;101092.41;7392504;19;20082;-65
2022/05/03 11:05:10;;;;;;;5.78;3.78;;;;;;;16.85;37.03;101090.69;7392830;19;20006;-66
2022/05/03 11:07:38;;;;;;;17.55;5.40;;;;;;;16.86;37.78;101081.81;7394001;19;20023;-65
2022/05/03 11:10:36;;;;;;;7.13;3.63;;;;;;;16.89;37.33;101089.59;7392550;19;20035;-66
2022/05/03 11:13:04;;;;;;;6.55;2.80;;;;;;;16.92;37.05;101082.44;7391339;19;20015;-64
2022/05/03 11:15:35;;;;;;;3.95;2.53;;;;;;;16.95;35.03;101086.72;7390791;19;20035;-65
2022/05/03 11:18:04;;;;;;;6.55;2.53;;;;;;;17.01;35.14;101083.81;7391820;19;20019;-65
2022/05/03 11:20:32;;;;;;;6.95;5.57;;;;;;;17.10;34.55;101072.81;7390485;19;20026;-64
2022/05/03 11:23:00;;;;;;;4.72;2.10;;;;;;;17.16;33.70;101082.28;7396988;19;20035;-65
2022/05/03 11:25:29;;;;;;;4.65;2.22;;;;;;;17.19;34.98;101070.69;7400736;19;20022;-65
2022/05/03 11:27:57;;;;;;;3.67;2.13;;;;;;;17.16;34.80;101063.75;7397010;19;20498;-66
2022/05/03 11:30:27;;;;;;;3.17;2.10;;;;;;;17.22;34.16;101070.53;7398303;19;20383;-66
2022/05/03 11:32:59;;;;;;;2.40;1.70;;;;;;;17.26;33.77;101064.16;7397240;19;20015;-65
2022/05/03 11:35:29;;;;;;;5.22;1.92;;;;;;;17.31;33.87;101069.28;7400244;19;20034;-65
2022/05/03 11:37:59;;;;;;;3.65;1.50;;;;;;;17.38;33.69;101062.78;7399690;19;20481;-66
2022/05/03 11:40:29;;;;;;;3.58;1.80;;;;;;;17.45;32.38;101068.66;7397996;19;20023;-64
2022/05/03 11:42:57;;;;;;;3.30;1.45;;;;;;;17.45;33.22;101055.38;7397000;19;20369;-66
2022/05/03 11:45:25;;;;;;;1.58;1.30;;;;;;;17.46;33.04;101049.16;7400176;19;20014;-66
2022/05/03 11:47:54;;;;;;;4.03;2.13;;;;;;;17.53;32.61;101067.38;7397305;19;20014;-66
2022/05/03 11:56:04;;;;;;;1.65;1.45;;;;;;;17.70;32.75;101053.31;7400138;19;20494;-65
2022/05/03 11:58:35;;;;;;;3.83;1.98;;;;;;;17.80;32.70;101040.47;7397087;19;20390;-65
2022/05/03 12:01:03;;;;;;;3.22;1.40;;;;;;;17.88;32.15;101045.41;7397209;19;20089;-66
2022/05/03 12:03:46;;;;;;;2.38;1.50;;;;;;;17.94;30.99;101044.31;7398050;19;20026;-65
2022/05/03 12:06:18;;;;;;;2.67;1.60;;;;;;;17.95;31.79;101036.28;7399264;19;20073;-65
2022/05/03 12:08:47;;;;;;;6.10;1.70;;;;;;;17.95;31.23;101046.88;7399977;19;20042;-66
2022/05/03 12:11:22;;;;;;;4.20;1.95;;;;;;;18.01;30.85;101051.06;7397220;19;20018;-65
2022/05/03 12:13:50;;;;;;;3.95;1.55;;;;;;;18.07;31.60;101041.00;7396986;19;20038;-67
2022/05/03 12:16:23;;;;;;;2.90;1.70;;;;;;;18.03;31.24;101042.09;7397478;19;20046;-65
2022/05/03 12:18:53;;;;;;;4.65;1.15;;;;;;;18.07;31.31;101048.06;7396690;19;20083;-67
2022/05/03 12:21:29;;;;;;;4.68;1.70;;;;;;;18.03;31.07;101042.09;7397084;19;20042;-65
2022/05/03 12:24:02;;;;;;;2.88;1.70;;;;;;;18.04;31.43;101041.13;7396827;19;20015;-63
2022/05/03 12:26:37;;;;;;;3.28;1.67;;;;;;;18.07;31.47;101046.31;7398531;19;20050;-67